Time;durP1;ratioP1;P1;durP2;ratioP2;P2;SDS_P1;SDS_P2;PMS_P1;PMS_P2;Temp;Humidity;BMP_temperature;BMP_pressure;BME280_temperature;BME280_humidity;BME280_pressure;Samples;Min_cycle;Max_cycle;Signal;HPM_P1;HPM_P2
2023/05/10 00:02:23;;;;;;;;;0.33;0.33;;;;;14.74;65.65;100838.06;4999020;28;45379;-72
2023/05/10 00:04:49;;;;;;;;;3.00;1.00;;;;;14.57;64.63;100811.09;4977452;28;46918;-71
2023/05/10 00:07:16;;;;;;;;;1.00;1.00;;;;;14.14;64.35;100765.03;4997607;28;45440;-73
2023/05/10 00:09:45;;;;;;;;;1.00;1.00;;;;;14.46;64.03;100824.34;4996456;28;45439;-73
2023/05/10 00:12:11;;;;;;;;;1.00;0.67;;;;;14.18;64.62;100785.16;4979963;28;45356;-71
2023/05/10 00:14:37;;;;;;;;;2.00;2.00;;;;;14.53;64.00;100846.22;4993572;28;45430;-72
2023/05/10 00:17:07;;;;;;;;;0.00;0.00;;;;;14.31;64.06;100828.06;4995042;28;45469;-72
2023/05/10 00:19:34;;;;;;;;;2.00;0.00;;;;;14.24;63.81;100815.84;4998930;28;45425;-72
2023/05/10 00:22:00;;;;;;;;;1.00;1.00;;;;;14.11;64.22;100811.59;4995972;28;45359;-72
2023/05/10 00:24:26;;;;;;;;;1.00;1.00;;;;;14.33;63.94;100849.09;4998153;28;45506;-72
2023/05/10 00:26:51;;;;;;;;;0.33;0.33;;;;;14.29;63.95;100843.00;4997981;28;45798;-72
2023/05/10 00:29:17;;;;;;;;;1.00;0.00;;;;;14.09;63.42;100819.50;4997532;28;45486;-72
2023/05/10 00:31:43;;;;;;;;;1.00;1.00;;;;;13.97;63.20;100802.06;4993311;28;45472;-73
2023/05/10 00:34:09;;;;;;;;;2.00;0.00;;;;;14.16;62.80;100838.75;4998027;28;46620;-74
2023/05/10 00:36:35;;;;;;;;;0.00;0.00;;;;;14.04;63.51;100837.13;5009930;28;45682;-72
2023/05/10 00:39:03;;;;;;;;;1.33;0.00;;;;;14.10;63.73;100852.00;4994155;28;45539;-72
2023/05/10 00:41:32;;;;;;;;;0.67;0.00;;;;;14.08;63.61;100851.13;4994053;28;45652;-73
2023/05/10 00:43:59;;;;;;;;;1.00;1.00;;;;;14.03;64.00;100858.22;4993125;28;45510;-72
2023/05/10 00:46:25;;;;;;;;;0.00;0.00;;;;;13.90;63.52;100837.25;4993863;28;45403;-73
2023/05/10 00:48:51;;;;;;;;;2.00;0.00;;;;;13.82;64.35;100828.56;4997656;28;45623;-74
2023/05/10 00:51:17;;;;;;;;;0.67;0.67;;;;;14.06;63.73;100871.34;4998057;28;46615;-73
2023/05/10 00:53:45;;;;;;;;;2.67;1.00;;;;;14.07;63.41;100867.81;4995068;28;45675;-73
2023/05/10 00:56:11;;;;;;;;;2.00;0.33;;;;;14.03;63.60;100874.88;4993781;28;45523;-73
2023/05/10 00:58:36;;;;;;;;;2.00;0.67;;;;;13.83;62.77;100848.72;4997291;28;45757;-74
2023/05/10 01:01:02;;;;;;;;;1.00;1.00;;;;;13.91;62.83;100864.47;4998028;28;45470;-74
2023/05/10 01:03:29;;;;;;;;;0.00;0.00;;;;;13.76;63.11;100847.94;4996544;28;46570;-73
2023/05/10 01:05:55;;;;;;;;;0.33;0.00;;;;;13.90;62.63;100875.88;4993217;28;45528;-74
2023/05/10 01:08:21;;;;;;;;;0.00;0.00;;;;;13.81;63.60;100860.16;4995614;28;45546;-74
2023/05/10 01:10:49;;;;;;;;;2.67;1.00;;;;;13.84;63.21;100858.41;4997607;28;45616;-73
2023/05/10 01:13:24;;;;;;;;;0.00;0.00;;;;;13.90;62.70;100882.00;4979825;28;46812;-75
2023/05/10 01:15:50;;;;;;;;;1.00;1.00;;;;;13.89;63.58;100877.66;4974483;28;45935;-73
2023/05/10 01:18:20;;;;;;;;;1.00;1.00;;;;;13.93;62.74;100875.88;4992801;28;45394;-74
2023/05/10 01:20:54;;;;;;;;;1.00;0.33;;;;;13.94;63.28;100878.47;4994884;28;45476;-74
2023/05/10 01:23:22;;;;;;;;;1.00;1.00;;;;;13.95;62.31;100879.34;4997199;28;46120;-73
2023/05/10 01:25:57;;;;;;;;;0.67;0.33;;;;;13.88;62.38;100869.75;4997170;28;45495;-72
2023/05/10 01:28:55;;;;;;;;;1.67;0.00;;;;;13.87;62.80;100868.88;4987554;28;45490;-75
2023/05/10 01:31:23;;;;;;;;;0.00;0.00;;;;;13.88;62.97;100881.19;4995361;28;45433;-73
2023/05/10 01:33:58;;;;;;;;;0.00;0.00;;;;;13.85;61.99;100878.56;4992912;28;45797;-74
2023/05/10 01:36:27;;;;;;;;;0.00;0.00;;;;;13.91;62.24;100881.16;4991646;28;45676;-74
2023/05/10 01:39:20;;;;;;;;;1.67;0.33;;;;;13.67;62.34;100836.63;4996592;28;45607;-73
2023/05/10 01:41:53;;;;;;;;;1.67;0.00;;;;;13.59;61.75;100839.31;4992359;28;45816;-74
2023/05/10 01:44:35;;;;;;;;;1.67;1.00;;;;;13.68;62.13;100859.41;4993354;28;46347;-73
2023/05/10 01:47:07;;;;;;;;;1.33;0.00;;;;;13.83;62.36;100882.97;4993531;28;45392;-73
2023/05/10 01:49:40;;;;;;;;;0.00;0.00;;;;;13.84;62.37;100887.34;4999288;28;45579;-74
2023/05/10 01:52:12;;;;;;;;;0.00;0.00;;;;;13.79;62.67;100881.25;5000461;28;45474;-73
2023/05/10 01:54:43;;;;;;;;;1.00;0.00;;;;;13.72;62.33;100877.81;5000619;28;45653;-74
2023/05/10 01:57:12;;;;;;;;;0.00;0.00;;;;;13.78;62.24;100888.25;4998760;28;45462;-74
2023/05/10 01:59:41;;;;;;;;;0.00;0.00;;;;;13.81;62.71;100882.13;4996348;28;45535;-73
2023/05/10 02:02:11;;;;;;;;;0.00;0.00;;;;;13.81;62.89;100874.22;4995119;28;45495;-73
2023/05/10 02:04:39;;;;;;;;;1.00;0.00;;;;;13.54;62.75;100834.09;4995352;28;45706;-76
2023/05/10 02:07:07;;;;;;;;;0.00;0.00;;;;;13.74;61.91;100875.19;4994679;28;45600;-73
2023/05/10 02:09:34;;;;;;;;;0.00;0.00;;;;;13.56;61.74;100848.09;4996213;28;45556;-74
2023/05/10 02:12:03;;;;;;;;;2.00;0.00;;;;;13.75;62.47;100900.59;5000315;28;45703;-74
2023/05/10 02:14:35;;;;;;;;;0.00;0.00;;;;;13.61;62.47;100884.03;5000389;28;47388;-72
2023/05/10 02:17:04;;;;;;;;;0.00;0.00;;;;;13.48;62.67;100873.63;5000248;28;45288;-76
2023/05/10 02:19:32;;;;;;;;;0.00;0.00;;;;;13.67;62.34;100895.41;4997735;28;45431;-75
2023/05/10 02:22:00;;;;;;;;;1.67;0.00;;;;;13.55;62.79;100872.69;4996079;28;45745;-74
2023/05/10 02:24:27;;;;;;;;;0.00;0.00;;;;;13.35;62.46;100835.13;4995566;28;46331;-74
2023/05/10 02:26:57;;;;;;;;;2.00;0.00;;;;;13.58;62.60;100879.69;4995352;28;45849;-73
2023/05/10 02:29:25;;;;;;;;;0.00;0.00;;;;;13.57;62.76;100884.09;4994221;28;45480;-73
2023/05/10 02:31:52;;;;;;;;;1.00;0.00;;;;;13.30;62.22;100847.44;4998468;28;45608;-74
2023/05/10 02:34:20;;;;;;;;;1.33;0.00;;;;;13.60;62.37;100892.84;4996306;28;45556;-74
2023/05/10 02:36:47;;;;;;;;;0.33;0.33;;;;;13.61;62.57;100890.19;4993681;28;45443;-75
2023/05/10 02:39:14;;;;;;;;;0.33;0.00;;;;;13.66;61.97;100884.88;5000200;28;45426;-73
2023/05/10 02:41:42;;;;;;;;;1.00;0.00;;;;;13.53;62.91;100871.81;4998492;28;45422;-73
2023/05/10 02:44:09;;;;;;;;;0.00;0.00;;;;;13.11;62.54;100794.06;4994106;28;47809;-73
2023/05/10 02:46:36;;;;;;;;;0.00;0.00;;;;;13.62;62.10;100880.50;4993903;28;45539;-72
2023/05/10 02:49:02;;;;;;;;;2.00;0.00;;;;;13.52;61.86;100859.53;4994243;28;45558;-73
2023/05/10 02:51:32;;;;;;;;;0.00;0.00;;;;;13.47;61.94;100863.97;4999834;28;45605;-73
2023/05/10 02:54:09;;;;;;;;;0.00;0.00;;;;;13.48;62.10;100862.22;4998136;28;46610;-73
2023/05/10 02:56:40;;;;;;;;;0.67;0.00;;;;;13.60;62.45;100885.81;4995076;28;46158;-75
2023/05/10 02:59:06;;;;;;;;;1.67;0.00;;;;;13.61;63.12;100887.53;4997314;28;45598;-75
2023/05/10 03:01:32;;;;;;;;;2.67;2.00;;;;;13.47;63.27;100866.59;4996226;28;45613;-74
2023/05/10 03:03:58;;;;;;;;;0.00;0.00;;;;;13.32;62.74;100843.06;4995569;28;46151;-73
2023/05/10 03:06:24;;;;;;;;;0.00;0.00;;;;;13.27;62.90;100837.81;4995636;28;45352;-74
2023/05/10 03:08:50;;;;;;;;;0.00;0.00;;;;;13.54;63.07;100873.56;4981371;28;45397;-72
2023/05/10 03:11:32;;;;;;;;;0.00;0.00;;;;;13.30;63.36;100836.94;4994340;28;46041;-74
2023/05/10 03:14:21;;;;;;;;;0.00;0.00;;;;;13.36;63.25;100874.59;4995107;28;46691;-74
2023/05/10 03:16:56;;;;;;;;;0.00;0.00;;;;;13.29;63.77;100856.25;4995600;28;45652;-73
2023/05/10 03:19:36;;;;;;;;;0.00;0.00;;;;;13.28;64.62;100873.75;4998122;28;45682;-74
2023/05/10 03:22:10;;;;;;;;;0.00;0.00;;;;;13.26;64.16;100871.97;4999393;28;45486;-73
2023/05/10 03:24:39;;;;;;;;;0.33;0.33;;;;;13.41;64.03;100886.84;4993176;28;46332;-74
2023/05/10 03:27:07;;;;;;;;;1.00;0.00;;;;;13.35;64.51;100870.19;4995064;28;45355;-73
2023/05/10 03:29:33;;;;;;;;;0.00;0.00;;;;;13.38;64.27;100869.28;4993070;28;45806;-73
2023/05/10 03:32:02;;;;;;;;;1.33;0.00;;;;;13.50;64.45;100887.66;4995353;28;46200;-73
2023/05/10 03:34:31;;;;;;;;;0.00;0.00;;;;;13.49;63.92;100883.25;4994613;28;45635;-74
2023/05/10 03:36:57;;;;;;;;;2.33;0.00;;;;;13.16;64.71;100824.69;4995481;28;45713;-73
2023/05/10 03:39:23;;;;;;;;;1.00;0.00;;;;;13.36;64.69;100860.56;4994537;28;45325;-73
2023/05/10 03:41:48;;;;;;;;;2.00;0.00;;;;;13.36;64.30;100871.09;4996338;28;45460;-74
2023/05/10 03:44:14;;;;;;;;;0.00;0.00;;;;;13.34;65.25;100873.72;4998492;28;46531;-73
2023/05/10 03:46:40;;;;;;;;;1.00;0.00;;;;;13.33;65.45;100873.72;4995865;28;45624;-73
2023/05/10 03:49:05;;;;;;;;;0.67;0.00;;;;;13.24;65.85;100844.81;4994475;28;45616;-73
2023/05/10 03:51:31;;;;;;;;;0.00;0.00;;;;;13.50;65.16;100884.13;4995050;28;45225;-72
2023/05/10 03:53:57;;;;;;;;;0.00;0.00;;;;;13.30;65.08;100848.31;4998223;28;46278;-72
2023/05/10 03:56:25;;;;;;;;;0.33;0.33;;;;;13.23;65.18;100837.81;4994964;28;45596;-72
2023/05/10 03:58:51;;;;;;;;;0.00;0.00;;;;;13.47;65.83;100877.13;4994703;28;45505;-72
2023/05/10 04:01:16;;;;;;;;;0.33;0.33;;;;;13.49;65.65;100883.25;4994804;28;45513;-72
2023/05/10 04:03:42;;;;;;;;;0.00;0.00;;;;;13.40;66.44;100872.78;4992817;28;47594;-73
2023/05/10 04:06:10;;;;;;;;;1.00;1.00;;;;;13.46;66.80;100872.75;4997701;28;45328;-73
2023/05/10 04:08:36;;;;;;;;;1.67;1.00;;;;;13.33;66.75;100855.31;4995356;28;45381;-73
2023/05/10 04:11:06;;;;;;;;;0.00;0.00;;;;;13.41;67.59;100869.28;4994000;28;45546;-71
2023/05/10 04:13:32;;;;;;;;;2.00;0.33;;;;;13.12;67.53;100817.75;4995372;28;45571;-73
2023/05/10 04:16:01;;;;;;;;;1.00;1.00;;;;;13.26;67.49;100843.91;4997974;28;45507;-72
2023/05/10 04:18:31;;;;;;;;;3.00;0.33;;;;;13.38;67.62;100856.13;4997687;28;45410;-72
2023/05/10 04:20:56;;;;;;;;;1.00;1.00;;;;;13.13;68.01;100822.09;4993694;28;45614;-70
2023/05/10 04:23:22;;;;;;;;;2.00;0.00;;;;;13.23;67.71;100835.19;4996929;28;46349;-70
2023/05/10 04:25:47;;;;;;;;;0.33;0.00;;;;;13.40;67.93;100870.16;4985374;28;45525;-72
2023/05/10 04:28:16;;;;;;;;;2.00;0.00;;;;;13.33;68.60;100860.56;4993496;28;45796;-72
2023/05/10 04:30:41;;;;;;;;;0.33;0.00;;;;;13.39;68.37;100875.47;4983030;28;45919;-71
2023/05/10 04:33:07;;;;;;;;;0.00;0.00;;;;;13.30;68.42;100865.84;4997920;28;45503;-72
2023/05/10 04:35:33;;;;;;;;;0.00;0.00;;;;;13.35;69.37;100866.69;4993808;28;45455;-72
2023/05/10 04:38:00;;;;;;;;;1.00;1.00;;;;;13.16;69.25;100840.47;4993721;28;45529;-72
2023/05/10 04:40:26;;;;;;;;;1.00;1.00;;;;;13.28;70.13;100862.38;4980904;28;45621;-72
2023/05/10 04:42:51;;;;;;;;;0.00;0.00;;;;;13.20;69.62;100848.38;4993003;28;46199;-72
2023/05/10 04:45:17;;;;;;;;;0.00;0.00;;;;;13.33;69.74;100860.56;4993311;28;45420;-71
2023/05/10 04:47:43;;;;;;;;;2.00;2.00;;;;;13.27;70.00;100847.44;4993851;28;45510;-72
2023/05/10 04:50:08;;;;;;;;;2.00;0.00;;;;;13.27;69.92;100865.84;4975394;28;45559;-71
2023/05/10 04:52:34;;;;;;;;;1.00;1.00;;;;;13.31;70.53;100863.22;4997599;28;45584;-72
2023/05/10 04:55:00;;;;;;;;;1.00;1.00;;;;;13.16;69.66;100850.13;4997907;28;45584;-70
2023/05/10 04:57:26;;;;;;;;;0.33;0.33;;;;;13.06;71.46;100856.34;4998041;28;45299;-71
2023/05/10 04:59:52;;;;;;;;;1.00;1.00;;;;;12.98;71.46;100853.78;4994763;28;45554;-72
2023/05/10 05:02:17;;;;;;;;;0.67;0.33;;;;;12.94;71.73;100850.28;4975317;28;46608;-71
2023/05/10 05:04:46;;;;;;;;;1.00;1.00;;;;;12.71;72.33;100808.34;4993447;28;45431;-71
2023/05/10 05:07:12;;;;;;;;;1.33;0.00;;;;;12.86;72.39;100830.16;4982674;28;45466;-71
2023/05/10 05:09:37;;;;;;;;;0.00;0.00;;;;;13.10;72.23;100861.59;4993366;28;45642;-70
2023/05/10 05:12:03;;;;;;;;;2.67;1.00;;;;;13.04;71.81;100843.19;4992027;28;46105;-71
2023/05/10 05:14:28;;;;;;;;;2.00;2.00;;;;;13.14;73.38;100862.41;4993519;28;45488;-70
2023/05/10 05:16:55;;;;;;;;;1.00;1.00;;;;;13.18;72.28;100869.41;4996046;28;45456;-71
2023/05/10 05:19:21;;;;;;;;;1.00;1.00;;;;;13.13;72.84;100858.91;4997117;28;45853;-71
2023/05/10 05:21:50;;;;;;;;;2.00;1.00;;;;;13.03;72.80;100838.84;4992853;28;45723;-71
2023/05/10 05:24:15;;;;;;;;;0.00;0.00;;;;;13.00;73.23;100830.94;4997587;28;45351;-71
2023/05/10 05:26:41;;;;;;;;;1.00;1.00;;;;;12.88;73.13;100808.28;5000833;28;45430;-71
2023/05/10 05:29:07;;;;;;;;;2.00;1.00;;;;;13.23;73.14;100862.38;4997602;28;45563;-71
2023/05/10 05:31:32;;;;;;;;;3.00;2.67;;;;;13.26;73.08;100864.09;4995586;28;45921;-71
2023/05/10 05:33:58;;;;;;;;;4.67;3.33;;;;;13.33;74.85;100868.47;4996535;28;45582;-71
2023/05/10 05:36:24;;;;;;;;;2.00;2.00;;;;;13.43;73.17;100866.63;4978549;28;45659;-71
2023/05/10 05:38:49;;;;;;;;;3.00;2.00;;;;;13.45;72.39;100865.72;4997761;28;45759;-70
2023/05/10 05:41:18;;;;;;;;;2.00;1.00;;;;;13.44;72.89;100857.88;4998100;28;46496;-70
2023/05/10 05:43:44;;;;;;;;;1.00;1.00;;;;;13.43;72.47;100857.00;4995994;28;45472;-70
2023/05/10 05:46:09;;;;;;;;;2.00;2.00;;;;;13.49;71.90;100863.97;4999398;28;45356;-71
2023/05/10 05:48:35;;;;;;;;;1.00;1.00;;;;;13.43;72.23;100851.75;4986577;28;45827;-70
2023/05/10 05:51:00;;;;;;;;;1.00;1.00;;;;;13.49;71.78;100862.19;4996207;28;46305;-70
2023/05/10 05:53:26;;;;;;;;;1.67;1.67;;;;;13.58;71.96;100872.66;4978915;28;45779;-70
2023/05/10 05:55:57;;;;;;;;;2.00;1.00;;;;;13.62;71.94;100873.53;4996173;28;45862;-71
2023/05/10 05:58:24;;;;;;;;;1.00;1.00;;;;;13.50;71.72;100848.19;4978383;28;45394;-70
2023/05/10 06:00:50;;;;;;;;;1.33;1.33;;;;;13.75;71.72;100885.66;4977464;28;46774;-72
2023/05/10 06:03:16;;;;;;;;;3.00;2.00;;;;;13.66;71.45;100848.03;4995313;28;45599;-70
2023/05/10 06:05:41;;;;;;;;;2.67;0.00;;;;;13.29;71.39;100777.31;4995701;28;45591;-71
2023/05/10 06:08:07;;;;;;;;;2.33;2.00;;;;;13.78;71.57;100842.66;4977967;28;45536;-72
2023/05/10 06:10:33;;;;;;;;;4.67;2.00;;;;;14.11;70.85;100885.34;4995706;28;45783;-71
2023/05/10 06:12:59;;;;;;;;;3.33;2.00;;;;;14.16;70.94;100883.53;4996291;28;45549;-72
2023/05/10 06:15:25;;;;;;;;;2.00;2.00;;;;;14.26;70.92;100890.47;4978228;28;45437;-71
2023/05/10 06:17:51;;;;;;;;;4.00;2.00;;;;;14.29;71.11;100869.34;4995879;28;45383;-71
2023/05/10 06:20:17;;;;;;;;;5.33;2.67;;;;;14.45;70.88;100891.13;4995172;28;45382;-71
2023/05/10 06:22:42;;;;;;;;;2.00;2.00;;;;;14.48;70.82;100885.81;4995483;28;45446;-73
2023/05/10 06:25:09;;;;;;;;;3.00;3.00;;;;;14.43;70.97;100896.41;4998081;28;45309;-71
2023/05/10 06:27:34;;;;;;;;;1.33;1.00;;;;;14.23;71.81;100887.84;4998901;28;45396;-71
2023/05/10 06:30:00;;;;;;;;;1.33;1.33;;;;;14.18;71.98;100892.28;4995465;28;45674;-72
2023/05/10 06:32:26;;;;;;;;;3.00;1.00;;;;;14.12;72.38;100887.09;4995600;28;45482;-70
2023/05/10 06:34:52;;;;;;;;;3.00;3.00;;;;;14.09;72.57;100887.13;4995385;28;45585;-72
2023/05/10 06:37:17;;;;;;;;;2.00;2.00;;;;;14.13;72.45;100909.91;4995667;28;45724;-70
2023/05/10 06:39:43;;;;;;;;;4.00;2.67;;;;;14.14;72.67;100907.28;4994736;28;45512;-71
2023/05/10 06:42:08;;;;;;;;;3.00;2.00;;;;;14.12;72.81;100902.91;4995479;28;45528;-71
2023/05/10 06:44:34;;;;;;;;;7.67;3.00;;;;;13.97;72.61;100885.47;4994809;28;45481;-70
2023/05/10 06:47:00;;;;;;;;;2.00;2.00;;;;;13.96;72.78;100876.72;4995457;28;45567;-69
2023/05/10 06:49:26;;;;;;;;;3.33;2.00;;;;;14.11;72.44;100891.47;4994659;28;45398;-71
2023/05/10 06:51:51;;;;;;;;;4.33;3.67;;;;;14.11;72.03;100885.34;4995269;28;45336;-71
2023/05/10 06:54:17;;;;;;;;;3.67;3.67;;;;;14.13;72.26;100894.97;4995213;28;45363;-71
2023/05/10 06:56:43;;;;;;;;;3.00;3.00;;;;;14.13;72.08;100894.97;4994822;28;45763;-71
2023/05/10 06:59:08;;;;;;;;;7.00;3.00;;;;;14.08;72.54;100883.63;4993212;28;46202;-71
2023/05/10 07:01:34;;;;;;;;;2.67;1.33;;;;;14.20;71.69;100896.66;4994903;28;45372;-71
2023/05/10 07:04:00;;;;;;;;;5.00;2.00;;;;;14.18;72.62;100895.78;4996321;28;45387;-71
2023/05/10 07:06:26;;;;;;;;;7.67;6.00;;;;;14.22;71.31;100894.00;4999445;28;45503;-70
2023/05/10 07:08:51;;;;;;;;;6.00;5.33;;;;;14.30;71.97;100912.38;4995621;28;46619;-70
2023/05/10 07:11:17;;;;;;;;;7.00;5.33;;;;;14.23;71.41;100906.28;4994570;28;45424;-71
2023/05/10 07:13:44;;;;;;;;;5.67;3.00;;;;;14.37;71.44;100925.44;4997688;28;45515;-70
2023/05/10 07:16:10;;;;;;;;;3.67;3.00;;;;;14.39;71.59;100921.03;4994871;28;45502;-70
2023/05/10 07:18:35;;;;;;;;;5.33;2.33;;;;;14.53;71.51;100923.53;4988893;28;45478;-71
2023/05/10 07:21:02;;;;;;;;;4.67;3.00;;;;;14.34;71.09;100880.69;4999070;28;45416;-71
2023/05/10 07:23:29;;;;;;;;;4.00;3.00;;;;;14.30;71.09;100860.53;4999109;28;45477;-71
2023/05/10 07:25:54;;;;;;;;;2.33;2.33;;;;;14.39;71.04;100875.38;4999125;28;45533;-72
2023/05/10 07:28:20;;;;;;;;;3.33;2.00;;;;;14.48;71.32;100892.84;4997244;28;45692;-71
2023/05/10 07:30:46;;;;;;;;;3.33;3.33;;;;;14.45;71.31;100891.13;4994704;28;45475;-73
2023/05/10 07:33:13;;;;;;;;;4.00;3.00;;;;;14.50;71.27;100918.31;4994123;28;45479;-72
2023/05/10 07:35:40;;;;;;;;;3.67;2.33;;;;;14.42;71.29;100913.09;4997022;28;45553;-71
2023/05/10 07:38:05;;;;;;;;;5.00;3.00;;;;;14.46;71.98;100934.16;4994291;28;45481;-71
2023/05/10 07:40:31;;;;;;;;;3.33;2.00;;;;;14.25;71.66;100907.16;4994130;28;45922;-71
2023/05/10 07:42:56;;;;;;;;;3.67;3.33;;;;;14.32;72.49;100916.72;4994496;28;45426;-70
2023/05/10 07:45:23;;;;;;;;;3.00;2.00;;;;;14.36;72.74;100936.91;4981767;28;45661;-71
2023/05/10 07:47:48;;;;;;;;;2.00;2.00;;;;;14.29;73.10;100922.03;4994499;28;45421;-71
2023/05/10 07:50:17;;;;;;;;;4.33;2.00;;;;;14.28;73.33;100925.53;4993914;28;45672;-72
2023/05/10 07:52:43;;;;;;;;;3.00;3.00;;;;;14.29;73.28;100937.84;4994509;28;45553;-71
2023/05/10 07:55:09;;;;;;;;;2.33;2.00;;;;;14.26;73.40;100932.63;4984848;28;45765;-72
2023/05/10 07:57:34;;;;;;;;;2.33;2.33;;;;;14.22;73.36;100938.78;4997305;28;46521;-72
2023/05/10 08:00:04;;;;;;;;;2.00;2.00;;;;;14.11;73.11;100917.81;4998130;28;45359;-72
2023/05/10 08:02:34;;;;;;;;;1.33;1.00;;;;;14.10;73.71;100907.31;4993603;28;45484;-71
2023/05/10 08:05:00;;;;;;;;;5.00;2.00;;;;;14.18;73.41;100923.91;4993974;28;45578;-71
2023/05/10 08:07:26;;;;;;;;;3.33;2.00;;;;;14.17;74.03;100932.72;4978851;28;47978;-72
2023/05/10 08:09:51;;;;;;;;;4.00;4.00;;;;;14.15;74.18;100924.81;4997524;28;45457;-71
2023/05/10 08:12:17;;;;;;;;;3.33;3.00;;;;;14.26;73.72;100937.88;4997617;28;45380;-72
2023/05/10 08:14:43;;;;;;;;;3.00;2.00;;;;;14.22;73.82;100925.63;4993764;28;45451;-72
2023/05/10 08:17:08;;;;;;;;;5.00;4.67;;;;;14.32;73.48;100936.94;4994670;28;45396;-72
2023/05/10 08:19:34;;;;;;;;;3.33;3.00;;;;;14.36;73.77;100936.03;4995801;28;45504;-71
2023/05/10 08:22:00;;;;;;;;;6.67;4.00;;;;;14.38;73.29;100936.91;4976540;28;45408;-70
2023/05/10 08:24:25;;;;;;;;;4.33;3.67;;;;;14.36;73.69;100931.63;4994118;28;45445;-70
2023/05/10 08:26:51;;;;;;;;;9.00;4.67;;;;;14.46;73.26;100939.44;4993543;28;46710;-72
2023/05/10 08:29:17;;;;;;;;;4.33;4.33;;;;;14.48;72.64;100953.47;4997949;28;45438;-72
2023/05/10 08:31:43;;;;;;;;;6.33;4.00;;;;;14.49;72.55;100952.56;4980433;28;45460;-72
2023/05/10 08:34:08;;;;;;;;;5.33;4.00;;;;;14.32;72.01;100922.00;4997949;28;45407;-71
2023/05/10 08:36:34;;;;;;;;;5.33;3.00;;;;;14.45;72.57;100945.56;4997588;28;46209;-72
2023/05/10 08:39:00;;;;;;;;;3.00;3.00;;;;;14.42;72.32;100936.81;4997483;28;45329;-71
2023/05/10 08:41:26;;;;;;;;;3.00;3.00;;;;;14.60;72.07;100954.22;4997505;28;45389;-71
2023/05/10 08:43:55;;;;;;;;;3.00;3.00;;;;;14.55;71.64;100948.16;4997871;28;45558;-69
2023/05/10 08:46:22;;;;;;;;;4.00;4.00;;;;;14.71;72.02;100972.59;4995372;28;45768;-69
2023/05/10 08:48:50;;;;;;;;;4.00;3.00;;;;;14.79;71.83;100970.72;4975756;28;45402;-71
2023/05/10 08:51:21;;;;;;;;;2.00;2.00;;;;;14.84;71.28;100973.31;4993968;28;45405;-71
2023/05/10 08:53:47;;;;;;;;;2.33;2.00;;;;;14.86;71.28;100962.75;4984702;28;45679;-70
2023/05/10 08:56:15;;;;;;;;;5.00;3.00;;;;;14.98;71.06;100975.78;4989534;28;47690;-71
2023/05/10 08:58:41;;;;;;;;;5.00;4.00;;;;;15.12;71.28;100976.47;5000205;28;45433;-72
2023/05/10 09:01:08;;;;;;;;;4.00;3.00;;;;;15.18;70.83;100979.03;4998335;28;45472;-71
2023/05/10 09:03:35;;;;;;;;;5.67;4.33;;;;;15.22;70.32;100982.50;4996634;28;45481;-71
2023/05/10 09:06:01;;;;;;;;;7.00;4.00;;;;;15.29;69.83;100976.25;5000687;28;46171;-71
2023/05/10 09:08:28;;;;;;;;;3.00;2.67;;;;;15.21;69.58;100934.16;5000662;28;45486;-70
2023/05/10 09:10:55;;;;;;;;;6.67;4.00;;;;;15.19;69.26;100906.91;4999785;28;45523;-72
2023/05/10 09:13:22;;;;;;;;;6.67;4.33;;;;;15.98;68.07;100992.88;4996578;28;46108;-71
2023/05/10 09:15:48;;;;;;;;;8.67;6.33;;;;;16.30;67.33;101000.22;4978294;28;45417;-70
2023/05/10 09:18:14;;;;;;;;;6.00;6.00;;;;;16.59;67.16;101002.38;4995897;28;45784;-70
2023/05/10 09:20:40;;;;;;;;;4.67;4.00;;;;;16.61;66.56;100967.94;4996180;28;45327;-71
2023/05/10 09:23:06;;;;;;;;;4.67;4.67;;;;;16.57;65.79;100961.88;4995766;28;45541;-71
2023/05/10 09:25:36;;;;;;;;;6.67;5.67;;;;;16.78;65.45;101010.84;4997017;28;46259;-71
2023/05/10 09:28:07;;;;;;;;;8.33;6.33;;;;;16.54;65.22;100998.94;4982842;28;45960;-70
2023/05/10 09:30:33;;;;;;;;;8.00;4.00;;;;;16.62;66.13;101022.59;4996032;28;45354;-74
2023/05/10 09:33:02;;;;;;;;;5.00;5.00;;;;;16.63;67.26;101013.75;4999469;28;45695;-72
2023/05/10 09:35:31;;;;;;;;;10.00;6.33;;;;;16.46;66.31;100990.28;5000699;28;46224;-72
2023/05/10 09:38:02;;;;;;;;;4.00;4.00;;;;;16.66;67.71;101011.06;4999042;28;45800;-71
2023/05/10 09:40:29;;;;;;;;;4.33;4.33;;;;;16.83;66.78;101016.06;5000465;28;45384;-73
2023/05/10 09:42:59;;;;;;;;;9.33;6.00;;;;;16.99;66.21;101027.19;5000474;28;45454;-71
2023/05/10 09:45:27;;;;;;;;;9.33;4.67;;;;;17.12;66.28;101026.06;4997411;28;46273;-72
2023/05/10 09:47:53;;;;;;;;;8.33;4.33;;;;;17.23;65.57;101031.16;4995863;28;45400;-71
2023/05/10 09:50:20;;;;;;;;;7.00;3.33;;;;;17.39;65.30;101037.84;4996886;28;45391;-70
2023/05/10 09:53:00;;;;;;;;;9.00;5.00;;;;;17.54;63.71;101026.94;4995253;28;45647;-71
2023/05/10 09:55:49;;;;;;;;;9.67;7.33;;;;;17.62;62.96;101037.34;4988190;28;45386;-71
2023/05/10 09:58:15;;;;;;;;;9.33;8.00;;;;;17.66;62.96;101041.69;4999989;28;45761;-70
2023/05/10 10:00:47;;;;;;;;;6.33;6.33;;;;;17.54;62.65;101037.53;5000208;28;45318;-73
2023/05/10 10:03:17;;;;;;;;;12.00;9.00;;;;;17.43;63.78;101036.00;4999909;28;45449;-72
2023/05/10 10:05:43;;;;;;;;;26.00;22.00;;;;;17.34;62.98;101045.88;4999846;28;46082;-73
2023/05/10 10:08:10;;;;;;;;;13.33;9.67;;;;;17.24;62.63;101046.97;4998248;28;45426;-72
2023/05/10 10:10:36;;;;;;;;;10.33;7.33;;;;;17.18;62.34;101057.72;5000379;28;45755;-73
2023/05/10 10:13:02;;;;;;;;;8.33;5.67;;;;;17.03;62.30;101037.69;4994244;28;46061;-74
2023/05/10 10:15:29;;;;;;;;;8.00;6.00;;;;;16.92;61.82;101050.28;4995844;28;46649;-72
2023/05/10 10:17:54;;;;;;;;;5.67;4.33;;;;;16.76;62.42;101049.66;4995866;28;45419;-71
2023/05/10 10:20:22;;;;;;;;;9.00;6.33;;;;;16.62;63.06;101049.91;4995926;28;45454;-72
2023/05/10 10:22:48;;;;;;;;;11.33;5.00;;;;;16.43;63.25;101038.78;4995748;28;45382;-72
2023/05/10 10:25:19;;;;;;;;;10.33;7.33;;;;;16.35;63.50;101031.88;4995119;28;45627;-72
2023/05/10 10:27:51;;;;;;;;;8.33;6.00;;;;;16.28;63.65;101044.34;4995391;28;45435;-70
2023/05/10 10:30:47;;;;;;;;;6.67;5.33;;;;;16.29;64.03;101046.06;4998227;28;45407;-71
2023/05/10 10:33:24;;;;;;;;;7.00;6.00;;;;;16.35;64.04;101040.69;4993873;28;45410;-70
2023/05/10 10:35:52;;;;;;;;;9.67;6.00;;;;;16.26;63.84;101025.00;4997280;28;47651;-74
2023/05/10 10:38:17;;;;;;;;;6.33;6.33;;;;;16.46;63.56;101038.72;5001181;28;45402;-70
2023/05/10 10:40:43;;;;;;;;;7.33;6.33;;;;;16.54;62.94;101041.25;4997995;28;45442;-70
2023/05/10 10:43:26;;;;;;;;;9.33;8.33;;;;;16.56;62.97;101022.69;4995171;28;45554;-70
2023/05/10 10:46:27;;;;;;;;;8.00;7.00;;;;;16.84;62.65;101044.25;4994951;28;45509;-71
2023/05/10 10:49:19;;;;;;;;;9.33;7.00;;;;;16.93;61.97;101039.66;4910270;28;45600;-71
2023/05/10 10:52:26;;;;;;;;;8.33;7.00;;;;;16.88;61.98;101030.06;4992525;28;45619;-72
2023/05/10 10:54:59;;;;;;;;;10.33;8.33;;;;;17.01;61.69;101049.22;4999553;28;45500;-70
2023/05/10 10:57:30;;;;;;;;;10.33;7.67;;;;;16.88;61.28;101040.66;4971898;28;47643;-71
2023/05/10 11:00:17;;;;;;;;;15.00;9.00;;;;;16.89;61.51;101048.53;4997071;28;45429;-72
2023/05/10 11:02:54;;;;;;;;;8.67;5.33;;;;;16.68;61.37;101027.75;4981575;28;45492;-72
2023/05/10 11:05:43;;;;;;;;;6.67;5.67;;;;;16.75;61.76;101042.59;4994159;28;45647;-72
2023/05/10 11:08:33;;;;;;;;;8.67;7.00;;;;;16.71;62.13;101041.81;4986011;28;46009;-71
2023/05/10 11:11:03;;;;;;;;;7.67;6.00;;;;;16.84;61.65;101050.41;4984825;28;45513;-74
2023/05/10 11:13:39;;;;;;;;;8.33;7.67;;;;;16.93;61.16;101033.50;4998325;28;45655;-74
2023/05/10 11:16:13;;;;;;;;;8.00;7.33;;;;;17.06;60.60;101048.25;4982819;28;45575;-72
2023/05/10 11:18:38;;;;;;;;;8.00;6.33;;;;;16.91;60.72;101040.59;4991117;28;46383;-71
2023/05/10 11:21:09;;;;;;;;;10.67;8.33;;;;;17.05;60.66;101042.97;4993146;28;45435;-73
2023/05/10 11:23:43;;;;;;;;;8.33;6.00;;;;;17.19;60.26;101045.34;4994538;28;45455;-71
2023/05/10 11:26:09;;;;;;;;;10.00;7.00;;;;;17.26;59.19;101039.88;4995431;28;45770;-74
2023/05/10 11:28:45;;;;;;;;;7.67;7.00;;;;;17.32;59.02;101021.25;4994573;28;45547;-71
2023/05/10 11:31:14;;;;;;;;;10.33;6.00;;;;;17.46;59.13;101026.22;4997823;28;46064;-74